Latest Coastal Weather Observations for Mandurah

IDW60701

Issued at 4:12 pm WST Monday 8 February 2016 (issued every 10 minutes, with the page automatically refreshed every 10 minutes)

About coastal observations | Map of coastal stations | Coastal observations for WA | Marine services | Other Formats
Station Details ID: 009977 Name: MANDURAH Lat: -32.52 Lon: 115.71 Height: 3.0 m
Data from the previous 72 hours. | See also: Recent months at Mandurah
Date/Time
WST
Temp

°C
Wind Pressure Rain
since 9am
mm
Weather Cloud Vis
km
Sea
Height
m
Swell
Dir
 
Speed
knots
Gust
knots
hPa Trend Height
m
Period
s
Dir
08/04:00pm 39.3 WSW 7 9 1012.5 - 0.0 - - - - - - -
08/03:30pm 39.6 WSW 7 9 1012.8 - 0.0 - - - - - - -
08/03:00pm 39.0 WSW 7 10 1013.0 - 0.0 - - - - - - -
08/02:30pm 38.2 W 8 10 1013.2 - 0.0 - - - - - - -
08/02:00pm 37.7 W 6 8 1013.7 - 0.0 - - - - - - -
08/01:30pm 35.8 WNW 7 9 1013.9 - 0.0 - - - - - - -
08/01:00pm 34.3 WNW 8 9 1014.3 - 0.0 - - - - - - -
08/12:30pm 32.9 NW 7 9 1014.6 - 0.0 - - - - - - -
08/12:00pm 33.8 N 8 10 1014.8 - 0.0 - - - - - - -
08/11:30am 35.1 N 9 11 1015.1 - 0.0 - - - - - - -
08/11:00am 33.9 NNE 10 15 1015.4 - 0.0 - - - - - - -
08/10:30am 33.2 NNE 9 12 1015.7 - 0.0 - - - - - - -
08/10:00am 32.2 NNE 11 13 1015.9 - 0.0 - - - - - - -
08/09:30am 32.3 NE 12 15 1015.9 - 0.0 - - - - - - -
08/09:00am 30.9 NE 12 17 1016.0 - 0.0 - - - - - - -
08/08:30am 30.3 NE 14 19 1016.0 - 0.0 - - - - - - -
08/08:00am 28.7 NE 9 13 1015.9 - 0.0 - - - - - - -
08/07:30am 28.2 NE 10 14 1015.8 - 0.0 - - - - - - -
08/07:00am 26.3 NE 3 6 1015.6 - 0.0 - - - - - - -
08/06:30am 24.8 ESE 2 4 1015.5 - 0.0 - - - - - - -
08/06:00am 24.5 E 3 5 1015.1 - 0.0 - - - - - - -
08/05:30am 25.0 ENE 3 5 1015.0 - 0.0 - - - - - - -
08/05:00am 25.0 ENE 2 3 1014.8 - 0.0 - - - - - - -
08/04:30am 26.2 ENE 5 8 1014.6 - 0.0 - - - - - - -
08/04:00am 26.6 E 7 11 1014.4 - 0.0 - - - - - - -
08/03:30am 26.8 E 9 13 1014.3 - 0.0 - - - - - - -
08/03:00am 27.4 E 9 15 1014.1 - 0.0 - - - - - - -
08/02:30am 26.8 E 7 11 1014.1 - 0.0 - - - - - - -
08/02:00am 26.9 ESE 7 10 1014.3 - 0.0 - - - - - - -
08/01:30am 26.5 ESE 7 9 1014.5 - 0.0 - - - - - - -
08/01:00am 26.9 SE 7 10 1014.7 - 0.0 - - - - - - -
08/12:30am 27.2 SE 6 9 1015.0 - 0.0 - - - - - - -
08/12:00am 27.3 SSE 6 9 1015.1 - 0.0 - - - - - - -
 
Date/Time
WST
Temp

°C
Wind Pressure Rain
since 9am
mm
Weather Cloud Vis
km
Sea
Height
m
Swell
Dir
 
Speed
knots
Gust
knots
hPa Trend Height
m
Period
s
Dir
07/11:30pm 27.1 SSE 6 9 1015.2 - 0.0 - - - - - - -
07/11:00pm 27.3 SSE 5 7 1015.4 - 0.0 - - - - - - -
07/10:30pm 28.2 SE 7 10 1015.6 - 0.0 - - - - - - -
07/10:00pm 27.6 SSE 6 10 1015.6 - 0.0 - - - - - - -
07/09:30pm 27.8 SSE 6 9 1015.7 - 0.0 - - - - - - -
07/09:00pm 28.2 SSE 6 9 1015.7 - 0.0 - - - - - - -
07/08:30pm 28.5 SSE 7 10 1015.5 - 0.0 - - - - - - -
07/08:00pm 28.8 SSE 6 9 1015.3 - 0.0 - - - - - - -
07/07:30pm 29.3 SSE 7 10 1015.0 - 0.0 - - - - - - -
07/07:00pm 30.0 S 8 11 1014.7 - 0.0 - - - - - - -
07/06:30pm 30.4 S 9 12 1014.3 - 0.0 - - - - - - -
07/06:00pm 31.1 S 7 10 1014.0 - 0.0 - - - - - - -
07/05:30pm 31.6 S 9 14 1013.8 - 0.0 - - - - - - -
07/05:00pm 32.5 SSW 8 13 1013.8 - 0.0 - - - - - - -
07/04:30pm 32.8 SW 8 12 1013.6 - 0.0 - - - - - - -
07/04:00pm 33.0 SW 9 12 1013.7 - 0.0 - - - - - - -
07/03:30pm 31.3 SW 10 14 1013.8 - 0.0 - - - - - - -
07/03:00pm 30.8 SW 11 16 1014.0 - 0.0 - - - - - - -
07/02:30pm 30.5 SW 11 16 1014.3 - 0.0 - - - - - - -
07/02:00pm 31.1 WSW 10 14 1014.6 - 0.0 - - - - - - -
07/01:30pm 30.0 WSW 10 15 1014.7 - 0.0 - - - - - - -
07/01:00pm 30.2 WSW 10 14 1015.0 - 0.0 - - - - - - -
07/12:30pm 31.3 WSW 6 9 1015.2 - 0.0 - - - - - - -
07/12:00pm 31.5 WSW 7 9 1015.4 - 0.0 - - - - - - -
07/11:30am 32.3 W 4 7 1015.4 - 0.0 - - - - - - -
07/11:00am 31.5 WNW 3 5 1015.6 - 0.0 - - - - - - -
07/10:30am 29.0 NW 5 5 1015.8 - 0.0 - - - - - - -
07/10:00am 29.6 NE 4 5 1016.0 - 0.0 - - - - - - -
07/09:30am 28.8 ENE 5 11 1016.2 - 0.0 - - - - - - -
07/09:00am 27.0 E 6 9 1016.2 - 0.0 - - - - - - -
07/08:30am 25.0 E 6 8 1016.3 - 0.0 - - - - - - -
07/08:00am 23.6 ESE 5 8 1016.3 - 0.0 - - - - - - -
07/07:30am 22.2 ESE 6 10 1016.3 - 0.0 - - - - - - -
07/07:00am 21.2 ESE 5 9 1016.2 - 0.0 - - - - - - -
07/06:30am 20.5 ESE 6 9 1016.0 - 0.0 - - - - - - -
07/06:00am 20.3 ESE 7 11 1015.7 - 0.0 - - - - - - -
07/05:30am 20.3 ESE 5 11 1015.5 - 0.0 - - - - - - -
07/05:00am 20.3 ESE 3 5 1015.2 - 0.0 - - - - - - -
07/04:30am 20.6 ESE 4 6 1015.1 - 0.0 - - - - - - -
07/04:00am 20.8 ESE 6 9 1015.0 - 0.0 - - - - - - -
07/03:30am 21.2 ESE 6 7 1014.9 - 0.0 - - - - - - -
07/03:00am 21.7 ESE 5 8 1014.9 - 0.0 - - - - - - -
07/02:30am 22.1 ESE 7 12 1014.8 - 0.0 - - - - - - -
07/02:00am 22.8 ESE 10 14 1014.7 - 0.0 - - - - - - -
07/01:30am 23.4 ESE 10 16 1014.8 - 0.0 - - - - - - -
07/01:00am 24.0 ESE 9 12 1014.9 - 0.0 - - - - - - -
07/12:30am 24.7 ESE 9 16 1014.9 - 0.0 - - - - - - -
07/12:00am 25.3 ESE 11 15 1014.9 - 0.0 - - - - - - -
 
Date/Time
WST
Temp

°C
Wind Pressure Rain
since 9am
mm
Weather Cloud Vis
km
Sea
Height
m
Swell
Dir
 
Speed
knots
Gust
knots
hPa Trend Height
m
Period
s
Dir
06/11:30pm 25.3 ESE 8 10 1015.0 - 0.0 - - - - - - -
06/11:00pm 25.0 SE 7 10 1015.1 - 0.0 - - - - - - -
06/10:30pm 24.5 SSE 6 9 1015.1 - 0.0 - - - - - - -
06/10:00pm 24.4 S 7 10 1015.0 - 0.0 - - - - - - -
06/09:30pm 24.5 S 9 12 1014.9 - 0.0 - - - - - - -
06/09:00pm 24.7 S 8 13 1014.7 - 0.0 - - - - - - -
06/08:30pm 24.9 S 8 12 1014.5 - 0.0 - - - - - - -
06/08:00pm 25.2 S 10 14 1014.4 - 0.0 - - - - - - -
06/07:30pm 25.3 S 10 17 1014.1 - 0.0 - - - - - - -
06/07:00pm 25.9 SSW 10 17 1013.8 - 0.0 - - - - - - -
06/06:30pm 26.5 SSW 10 17 1013.7 - 0.0 - - - - - - -
06/06:00pm 26.6 SSW 12 21 1013.5 - 0.0 - - - - - - -
06/05:30pm 27.5 SSW 13 21 1013.4 - 0.0 - - - - - - -
06/05:00pm 28.1 SSW 12 17 1013.2 - 0.0 - - - - - - -
06/04:30pm 29.0 SSW 11 17 1013.4 - 0.0 - - - - - - -
06/04:00pm 29.7 SSW 11 16 1013.6 - 0.0 - - - - - - -
06/03:30pm 29.9 SSW 11 16 1013.7 - 0.0 - - - - - - -
06/03:00pm 30.0 SSW 10 15 1013.9 - 0.0 - - - - - - -
06/02:30pm 29.6 SSW 9 13 1014.1 - 0.0 - - - - - - -
06/02:00pm 29.5 WSW 11 15 1014.2 - 0.0 - - - - - - -
06/01:30pm 29.1 WSW 11 15 1014.5 - 0.0 - - - - - - -
06/01:00pm 28.8 SW 11 15 1014.7 - 0.0 - - - - - - -
06/12:30pm 28.4 WSW 11 14 1014.9 - 0.0 - - - - - - -
06/12:00pm 28.3 WSW 10 14 1015.1 - 0.0 - - - - - - -
06/11:30am 27.8 WSW 10 14 1015.3 - 0.0 - - - - - - -
06/11:00am 27.8 WSW 11 15 1015.4 - 0.0 - - - - - - -
06/10:30am 27.5 SSW 3 5 1015.6 - 0.0 - - - - - - -
06/10:00am 26.4 S 4 7 1015.7 - 0.0 - - - - - - -
06/09:30am 25.1 SSE 7 10 1015.9 - 0.0 - - - - - - -
06/09:00am 23.9 SSE 8 13 1016.0 - 0.0 - - - - - - -
06/08:30am 23.1 S 9 13 1016.0 - 0.0 - - - - - - -
06/08:00am 21.9 SSE 7 10 1015.7 - 0.0 - - - - - - -
06/07:30am 21.4 SE 8 11 1015.3 - 0.0 - - - - - - -
06/07:00am 21.0 SSE 8 12 1015.5 - 0.0 - - - - - - -
06/06:30am 20.5 SSE 7 10 1015.1 - 0.0 - - - - - - -
06/06:00am 20.7 SSE 7 10 1014.8 - 0.0 - - - - - - -
06/05:30am 21.1 SSE 7 11 1014.5 - 0.0 - - - - - - -
06/05:00am 21.4 SSE 7 10 1014.2 - 0.0 - - - - - - -
06/04:30am 22.1 S 8 11 1014.0 - 0.0 - - - - - - -
06/04:00am 22.3 S 8 11 1013.9 - 0.0 - - - - - - -
06/03:30am 22.6 S 8 11 1013.8 - 0.0 - - - - - - -
06/03:00am 22.8 S 7 12 1013.7 - 0.0 - - - - - - -
06/02:30am 23.2 S 5 7 1013.7 - 0.0 - - - - - - -
06/02:00am 23.5 SSE 4 8 1013.7 - 0.0 - - - - - - -
06/01:30am 23.5 S 6 8 1013.6 - 0.0 - - - - - - -
06/01:00am 24.2 S 5 7 1013.6 - 0.0 - - - - - - -
06/12:30am 24.4 SSE 6 8 1013.7 - 0.0 - - - - - - -
06/12:00am 24.4 SSE 6 9 1014.2 - 0.0 - - - - - - -
 
Date/Time
WST
Temp

°C
Wind Pressure Rain
since 9am
mm
Weather Cloud Vis
km
Sea
Height
m
Swell
Dir
 
Speed
knots
Gust
knots
hPa Trend Height
m
Period
s
Dir
05/11:30pm 24.8 SSE 7 10 1014.4 - 0.0 - - - - - - -
05/11:00pm 24.9 SSE 6 10 1014.4 - 0.0 - - - - - - -
05/10:30pm 25.1 SSE 6 9 1014.4 - 0.0 - - - - - - -
05/10:00pm 25.0 S 8 11 1014.5 - 0.0 - - - - - - -
05/09:30pm 25.1 SSW 7 11 1014.3 - 0.0 - - - - - - -
05/09:00pm 25.5 S 6 8 1014.1 - 0.0 - - - - - - -
05/08:30pm 25.8 S 7 10 1013.8 - 0.0 - - - - - - -
05/08:00pm 26.5 S 8 14 1013.5 - 0.0 - - - - - - -
05/07:30pm 27.1 S 6 9 1013.2 - 0.0 - - - - - - -
05/07:00pm 27.2 SSW 6 9 1013.1 - 0.0 - - - - - - -
05/06:30pm 27.5 S 7 12 1013.0 - 0.0 - - - - - - -
05/06:00pm 27.8 SSW 9 12 1013.0 - 0.0 - - - - - - -
05/05:30pm 28.7 SSW 8 13 1012.8 - 0.0 - - - - - - -
05/05:00pm 29.7 SSW 7 12 1012.6 - 0.0 - - - - - - -
05/04:30pm 30.1 SSW 9 14 1012.7 - 0.0 - - - - - - -

Other Formats:

Comma delimited format used in spreadsheet applications
http://www.bom.gov.au/fwo/IDW60701/IDW60701.94605.axf

JavaScript Object Notation format (JSON) in row-major order
http://www.bom.gov.au/fwo/IDW60701/IDW60701.94605.json